createdAt,value
2018-03-21T00:00:53.512Z,68.12
2018-03-21T00:01:53.518Z,68.30
2018-03-21T00:03:46.432Z,68.77
2018-03-21T00:04:46.431Z,68.87
2018-03-21T00:06:39.334Z,69.15
2018-03-21T00:07:39.326Z,69.06
2018-03-21T00:09:32.216Z,69.34
2018-03-21T00:10:32.230Z,69.15
2018-03-21T00:12:25.140Z,68.77
2018-03-21T00:13:25.130Z,69.25
2018-03-21T00:15:18.026Z,68.87
2018-03-21T00:16:18.034Z,68.77
2018-03-21T00:18:10.942Z,69.44
2018-03-21T00:19:10.933Z,69.34
2018-03-21T00:21:03.826Z,69.53
2018-03-21T00:22:03.832Z,69.53
2018-03-21T00:23:56.742Z,69.25
2018-03-21T00:24:56.732Z,69.34
2018-03-21T00:26:49.653Z,69.53
2018-03-21T00:27:49.637Z,69.78
2018-03-21T00:29:42.522Z,70.25
2018-03-21T00:30:42.533Z,70.16
2018-03-21T00:32:35.439Z,70.73
2018-03-21T00:33:35.434Z,70.25
2018-03-21T00:35:28.323Z,71.30
2018-03-21T00:36:28.333Z,71.39
2018-03-21T00:38:21.280Z,71.20
2018-03-21T00:39:21.274Z,71.30
2018-03-21T00:41:14.159Z,71.67
2018-03-21T00:42:14.175Z,71.95
2018-03-21T00:44:07.080Z,72.52
2018-03-21T00:45:07.071Z,72.52
2018-03-21T00:46:59.989Z,72.43
2018-03-21T00:47:59.972Z,72.80
2018-03-21T00:49:52.861Z,73.09
2018-03-21T00:50:52.879Z,72.80
2018-03-21T00:52:45.780Z,72.99
2018-03-21T00:53:45.772Z,73.37
2018-03-21T00:55:38.663Z,73.37
2018-03-21T00:56:38.675Z,73.37
2018-03-21T00:58:31.580Z,73.37
2018-03-21T00:59:31.573Z,73.37
2018-03-21T01:01:24.477Z,73.28
2018-03-21T01:02:24.482Z,73.28
2018-03-21T01:04:17.391Z,73.28
2018-03-21T01:05:17.385Z,73.37
2018-03-21T01:07:10.313Z,73.37
2018-03-21T01:08:10.289Z,72.99
2018-03-21T01:10:03.177Z,73.47
2018-03-21T01:11:03.185Z,73.56
2018-03-21T01:12:56.100Z,73.37
2018-03-21T01:13:56.090Z,73.75
2018-03-21T01:15:48.976Z,73.66
2018-03-21T01:16:48.988Z,73.47
2018-03-21T01:18:41.899Z,74.13
2018-03-21T01:19:41.891Z,74.22
2018-03-21T01:21:34.779Z,73.94
2018-03-21T01:22:34.789Z,73.66
2018-03-21T01:24:27.698Z,73.94
2018-03-21T01:25:27.693Z,74.22
2018-03-21T01:27:20.613Z,74.04
2018-03-21T01:28:20.589Z,74.22
2018-03-21T01:30:13.477Z,74.13
2018-03-21T01:31:13.486Z,73.56
2018-03-21T01:33:06.393Z,73.85
2018-03-21T01:34:06.384Z,74.32
2018-03-21T01:35:59.271Z,74.41
2018-03-21T01:36:59.281Z,74.28
2018-03-21T01:38:52.189Z,74.28
2018-03-21T01:39:52.183Z,74.13
2018-03-21T01:41:45.071Z,73.90
2018-03-21T01:42:45.080Z,74.00
2018-03-21T01:44:37.988Z,73.90
2018-03-21T01:45:37.980Z,74.57
2018-03-21T01:47:30.867Z,74.19
2018-03-21T01:48:30.876Z,74.47
2018-03-21T01:50:23.788Z,74.66
2018-03-21T01:51:23.781Z,74.76
2018-03-21T01:53:16.688Z,75.04
2018-03-21T01:54:16.681Z,75.04
2018-03-21T01:56:09.569Z,74.66
2018-03-21T01:57:09.580Z,74.38
2018-03-21T01:59:02.483Z,75.13
2018-03-21T02:00:02.476Z,75.23
2018-03-21T02:01:55.381Z,75.04
2018-03-21T02:02:55.385Z,75.13
2018-03-21T02:04:48.294Z,75.32
2018-03-21T02:05:48.285Z,75.60
2018-03-21T02:07:41.178Z,75.98
2018-03-21T02:08:41.187Z,76.17
2018-03-21T02:10:34.092Z,76.36
2018-03-21T02:11:34.084Z,76.07
2018-03-21T02:13:26.993Z,76.83
2018-03-21T02:14:26.982Z,76.93
2018-03-21T02:16:19.871Z,77.12
2018-03-21T02:17:19.885Z,76.93
2018-03-21T02:19:12.784Z,77.31
2018-03-21T02:20:12.774Z,77.21
2018-03-21T02:22:05.662Z,77.02
2018-03-21T02:23:05.675Z,77.21
2018-03-21T02:24:58.580Z,77.02
2018-03-21T02:25:58.571Z,76.64
2018-03-21T02:27:51.459Z,76.74
2018-03-21T02:28:51.470Z,76.83
2018-03-21T02:30:44.375Z,76.83
2018-03-21T02:31:44.372Z,77.02
2018-03-21T02:33:37.276Z,77.12
2018-03-21T02:34:37.270Z,76.83
2018-03-21T02:36:30.154Z,77.12
2018-03-21T02:37:30.164Z,76.74
2018-03-21T02:39:23.070Z,76.83
2018-03-21T02:40:23.063Z,77.31
2018-03-21T02:42:15.950Z,76.55
2018-03-21T02:43:15.963Z,77.78
2018-03-21T02:45:08.869Z,77.21
2018-03-21T02:46:08.859Z,77.02
2018-03-21T02:48:01.754Z,76.64
2018-03-21T02:49:01.757Z,77.50
2018-03-21T02:50:54.662Z,76.64
2018-03-21T02:51:54.653Z,77.69
2018-03-21T02:53:47.556Z,77.78
2018-03-21T02:54:47.549Z,77.17
2018-03-21T02:56:40.674Z,77.93
2018-03-21T02:57:40.453Z,77.93
2018-03-21T02:59:33.351Z,77.74
2018-03-21T03:00:33.344Z,77.93
2018-03-21T03:02:26.228Z,78.40
2018-03-21T03:03:26.249Z,78.50
2018-03-21T03:05:19.149Z,79.06
2018-03-21T03:06:19.145Z,79.06
2018-03-21T03:08:12.033Z,78.97
2018-03-21T03:09:12.034Z,78.59
2018-03-21T03:11:04.939Z,78.59
2018-03-21T03:12:04.927Z,78.31
2018-03-21T03:13:57.833Z,78.97
2018-03-21T03:14:57.828Z,78.87
2018-03-21T03:16:50.712Z,79.16
2018-03-21T03:17:50.724Z,78.97
2018-03-21T03:19:43.631Z,79.25
2018-03-21T03:20:43.624Z,79.16
2018-03-21T03:22:36.510Z,79.16
2018-03-21T03:23:36.519Z,79.16
2018-03-21T03:25:29.428Z,79.16
2018-03-21T03:26:29.420Z,79.25
2018-03-21T03:28:22.305Z,78.97
2018-03-21T03:29:22.316Z,79.35
2018-03-21T03:31:15.223Z,79.25
2018-03-21T03:32:15.213Z,79.16
2018-03-21T03:34:08.121Z,79.25
2018-03-21T03:35:08.109Z,79.25
2018-03-21T03:37:00.994Z,79.16
2018-03-21T03:38:01.004Z,79.16
2018-03-21T03:39:53.906Z,79.44
2018-03-21T03:40:53.897Z,79.35
2018-03-21T03:42:46.785Z,79.82
2018-03-21T03:43:46.794Z,79.44
2018-03-21T03:45:39.709Z,79.72
2018-03-21T03:46:39.699Z,79.63
2018-03-21T03:48:32.582Z,79.63
2018-03-21T03:49:32.592Z,79.53
2018-03-21T03:51:25.499Z,79.82
2018-03-21T03:52:25.491Z,79.63
2018-03-21T03:54:18.395Z,79.35
2018-03-21T03:55:18.386Z,79.63
2018-03-21T03:57:11.273Z,79.82
2018-03-21T03:58:11.280Z,79.44
2018-03-21T04:00:04.187Z,79.44
2018-03-21T04:01:04.182Z,79.82
2018-03-21T04:02:57.067Z,79.44
2018-03-21T04:03:57.077Z,79.63
2018-03-21T04:05:49.986Z,79.63
2018-03-21T04:06:49.980Z,79.72
2018-03-21T04:08:42.862Z,79.53
2018-03-21T04:09:42.874Z,79.44
2018-03-21T04:11:35.778Z,80.00
2018-03-21T04:12:35.783Z,79.82
2018-03-21T04:14:28.674Z,80.00
2018-03-21T04:15:28.664Z,79.63
2018-03-21T04:17:21.552Z,80.10
2018-03-21T04:18:21.561Z,80.19
2018-03-21T04:20:14.467Z,79.82
2018-03-21T04:21:14.457Z,80.00
2018-03-21T04:23:07.343Z,80.19
2018-03-21T04:24:07.354Z,80.29
2018-03-21T04:26:00.262Z,80.29
2018-03-21T04:27:00.258Z,80.48
2018-03-21T04:28:53.144Z,80.57
2018-03-21T04:29:53.154Z,80.57
2018-03-21T04:31:46.057Z,80.57
2018-03-21T04:32:46.050Z,80.48
2018-03-21T04:34:38.950Z,80.38
2018-03-21T04:35:38.941Z,80.38
2018-03-21T04:37:31.833Z,80.57
2018-03-21T04:38:31.841Z,80.85
2018-03-21T04:40:24.742Z,80.76
2018-03-21T04:41:24.733Z,80.57
2018-03-21T04:43:17.620Z,80.48
2018-03-21T04:44:17.631Z,80.66
2018-03-21T04:46:10.534Z,80.29
2018-03-21T04:47:10.527Z,80.29
2018-03-21T04:49:03.407Z,80.29
2018-03-21T04:50:03.422Z,80.29
2018-03-21T04:51:56.323Z,80.29
2018-03-21T04:52:56.319Z,80.57
2018-03-21T04:54:49.218Z,80.19
2018-03-21T04:55:49.209Z,80.19
2018-03-21T04:57:42.248Z,80.38
2018-03-21T04:58:42.259Z,80.29
2018-03-21T05:00:35.396Z,80.29
2018-03-21T05:01:35.386Z,80.38
2018-03-21T05:03:28.270Z,80.10
2018-03-21T05:04:28.281Z,80.29
2018-03-21T05:06:21.188Z,80.57
2018-03-21T05:07:21.175Z,80.48
2018-03-21T05:09:14.061Z,81.33
2018-03-21T05:10:14.075Z,81.14
2018-03-21T05:12:06.976Z,81.04
2018-03-21T05:13:06.965Z,80.95
2018-03-21T05:14:59.870Z,81.33
2018-03-21T05:15:59.861Z,81.33
2018-03-21T05:17:52.744Z,81.23
2018-03-21T05:18:52.754Z,80.95
2018-03-21T05:20:45.659Z,81.71
2018-03-21T05:21:45.652Z,81.52
2018-03-21T05:23:38.535Z,81.42
2018-03-21T05:24:38.543Z,81.71
2018-03-21T05:26:31.449Z,81.71
2018-03-21T05:27:31.440Z,81.61
2018-03-21T05:29:24.328Z,81.80
2018-03-21T05:30:24.338Z,81.52
2018-03-21T05:32:17.256Z,81.42
2018-03-21T05:33:17.248Z,81.61
2018-03-21T05:35:10.153Z,81.33
2018-03-21T05:36:10.149Z,81.52
2018-03-21T05:38:03.056Z,81.61
2018-03-21T05:39:03.072Z,81.33
2018-03-21T05:40:55.971Z,81.23
2018-03-21T05:41:55.966Z,81.42
2018-03-21T05:43:48.846Z,82.28
2018-03-21T05:44:48.858Z,82.56
2018-03-21T05:46:41.761Z,82.09
2018-03-21T05:47:41.752Z,82.09
2018-03-21T05:49:34.636Z,82.09
2018-03-21T05:50:34.647Z,82.18
2018-03-21T05:52:27.561Z,82.18
2018-03-21T05:53:27.546Z,82.18
2018-03-21T05:55:20.449Z,82.18
2018-03-21T05:56:20.439Z,81.99
2018-03-21T05:58:13.326Z,82.65
2018-03-21T05:59:13.336Z,82.46
2018-03-21T06:01:06.241Z,82.28
2018-03-21T06:02:06.232Z,82.65
2018-03-21T06:03:59.120Z,82.65
2018-03-21T06:04:59.130Z,82.46
2018-03-21T06:06:52.048Z,82.46
2018-03-21T06:07:52.056Z,82.79
2018-03-21T06:09:44.989Z,82.60
2018-03-21T06:10:44.938Z,82.88
2018-03-21T06:12:37.845Z,83.07
2018-03-21T06:13:37.836Z,82.98
2018-03-21T06:15:30.744Z,82.79
2018-03-21T06:16:30.737Z,82.50
2018-03-21T06:18:23.625Z,83.64
2018-03-21T06:19:23.634Z,83.45
2018-03-21T06:21:16.536Z,83.07
2018-03-21T06:22:16.529Z,83.45
2018-03-21T06:24:09.421Z,83.73
2018-03-21T06:25:09.432Z,83.64
2018-03-21T06:27:02.357Z,84.39
2018-03-21T06:28:02.337Z,84.39
2018-03-21T06:29:55.219Z,84.49
2018-03-21T06:30:55.232Z,83.92
2018-03-21T06:32:48.138Z,84.39
2018-03-21T06:33:48.129Z,84.30
2018-03-21T06:35:41.045Z,84.63
2018-03-21T06:36:41.039Z,83.78
2018-03-21T06:38:33.925Z,84.53
2018-03-21T06:39:33.934Z,84.06
2018-03-21T06:41:26.844Z,83.40
2018-03-21T06:42:26.835Z,83.78
2018-03-21T06:44:19.722Z,83.78
2018-03-21T06:45:19.736Z,83.02
2018-03-21T06:47:12.668Z,83.11
2018-03-21T06:48:12.664Z,82.73
2018-03-21T06:50:05.572Z,82.97
2018-03-21T06:51:05.562Z,82.87
2018-03-21T06:52:58.473Z,82.59
2018-03-21T06:53:58.466Z,81.55
2018-03-21T06:55:51.377Z,81.55
2018-03-21T06:56:51.367Z,81.64
2018-03-21T06:58:44.258Z,81.45
2018-03-21T06:59:44.273Z,82.59
2018-03-21T07:01:37.182Z,82.12
2018-03-21T07:02:37.173Z,82.12
2018-03-21T07:04:30.066Z,82.78
2018-03-21T07:05:30.077Z,83.44
2018-03-21T07:07:22.988Z,83.78
2018-03-21T07:08:22.980Z,84.34
2018-03-21T07:10:15.869Z,84.72
2018-03-21T07:11:15.881Z,84.63
2018-03-21T07:13:08.791Z,85.38
2018-03-21T07:14:08.787Z,85.00
2018-03-21T07:16:01.695Z,84.81
2018-03-21T07:17:01.691Z,84.63
2018-03-21T07:18:54.578Z,84.91
2018-03-21T07:19:54.588Z,84.81
2018-03-21T07:21:47.498Z,84.77
2018-03-21T07:22:47.491Z,85.19
2018-03-21T07:24:40.382Z,85.24
2018-03-21T07:25:40.393Z,85.42
2018-03-21T07:27:33.305Z,84.58
2018-03-21T07:28:33.299Z,83.91
2018-03-21T07:30:26.188Z,84.20
2018-03-21T07:31:26.203Z,84.20
2018-03-21T07:33:19.119Z,83.44
2018-03-21T07:34:19.108Z,82.97
2018-03-21T07:36:12.020Z,82.78
2018-03-21T07:37:12.010Z,83.15
2018-03-21T07:39:04.917Z,83.53
2018-03-21T07:40:04.921Z,83.72
2018-03-21T07:41:57.831Z,83.25
2018-03-21T07:42:57.824Z,83.25
2018-03-21T07:44:50.716Z,83.44
2018-03-21T07:45:50.734Z,83.44
2018-03-21T07:47:43.636Z,83.72
2018-03-21T07:48:43.630Z,83.25
2018-03-21T07:50:36.520Z,83.34
2018-03-21T07:51:36.531Z,83.44
2018-03-21T07:53:29.440Z,82.59
2018-03-21T07:54:29.436Z,82.87
2018-03-21T07:56:22.345Z,83.49
2018-03-21T07:57:22.344Z,83.49
2018-03-21T07:59:15.226Z,83.49
2018-03-21T08:00:15.238Z,84.06
2018-03-21T08:02:08.146Z,83.97
2018-03-21T08:03:08.148Z,84.72
2018-03-21T08:05:01.030Z,84.63
2018-03-21T08:06:01.042Z,84.72
2018-03-21T08:07:53.958Z,84.34
2018-03-21T08:08:53.947Z,84.86
2018-03-21T08:10:46.837Z,85.34
2018-03-21T08:11:46.849Z,85.81
2018-03-21T08:13:39.762Z,86.38
2018-03-21T08:14:39.755Z,86.29
2018-03-21T08:16:32.663Z,87.27
2018-03-21T08:17:32.654Z,87.27
2018-03-21T08:19:25.562Z,87.18
2018-03-21T08:20:25.556Z,87.18
2018-03-21T08:22:18.467Z,86.99
2018-03-21T08:23:18.460Z,87.08
2018-03-21T08:25:11.353Z,86.52
2018-03-21T08:26:11.363Z,86.14
2018-03-21T08:28:04.272Z,86.33
2018-03-21T08:29:04.314Z,86.85
2018-03-21T08:30:57.154Z,85.85
2018-03-21T08:31:57.175Z,85.38
2018-03-21T08:33:50.090Z,85.76
2018-03-21T08:34:50.074Z,86.18
2018-03-21T08:36:42.981Z,86.18
2018-03-21T08:37:42.974Z,86.56
2018-03-21T08:39:35.866Z,87.13
2018-03-21T08:40:35.880Z,87.13
2018-03-21T08:42:28.794Z,85.71
2018-03-21T08:43:28.789Z,85.71
2018-03-21T08:45:21.675Z,85.99
2018-03-21T08:46:21.690Z,85.61
2018-03-21T08:48:14.621Z,85.61
2018-03-21T08:49:14.595Z,85.47
2018-03-21T08:51:07.485Z,86.22
2018-03-21T08:52:07.498Z,85.94
2018-03-21T08:54:00.409Z,85.47
2018-03-21T08:55:00.404Z,85.57
2018-03-21T08:56:53.320Z,85.00
2018-03-21T08:57:53.315Z,85.04
2018-03-21T08:59:46.206Z,84.38
2018-03-21T09:00:46.227Z,83.62
2018-03-21T09:02:39.138Z,83.33
2018-03-21T09:03:39.135Z,83.14
2018-03-21T09:05:32.024Z,82.10
2018-03-21T09:06:32.041Z,82.48
2018-03-21T09:08:24.979Z,82.86
2018-03-21T09:09:24.948Z,82.67
2018-03-21T09:11:17.843Z,83.05
2018-03-21T09:12:17.859Z,82.20
2018-03-21T09:14:10.770Z,81.82
2018-03-21T09:15:10.765Z,82.43
2018-03-21T09:17:03.684Z,82.52
2018-03-21T09:18:03.678Z,82.24
2018-03-21T09:19:56.573Z,81.86
2018-03-21T09:20:56.586Z,81.95
2018-03-21T09:22:49.509Z,81.10
2018-03-21T09:23:49.506Z,81.10
2018-03-21T09:25:42.402Z,81.57
2018-03-21T09:26:42.416Z,81.76
2018-03-21T09:28:35.333Z,82.01
2018-03-21T09:29:35.329Z,81.48
2018-03-21T09:31:28.225Z,81.44
2018-03-21T09:32:28.240Z,81.63
2018-03-21T09:34:21.151Z,81.34
2018-03-21T09:35:21.148Z,80.96
2018-03-21T09:37:14.070Z,82.10
2018-03-21T09:38:14.066Z,82.39
2018-03-21T09:40:06.963Z,83.14
2018-03-21T09:41:06.975Z,83.52
2018-03-21T09:42:59.889Z,83.81
2018-03-21T09:43:59.881Z,84.19
2018-03-21T09:45:52.780Z,83.62
2018-03-21T09:46:52.795Z,83.52
2018-03-21T09:48:45.706Z,83.14
2018-03-21T09:49:45.750Z,82.57
2018-03-21T09:51:38.594Z,82.14
2018-03-21T09:52:38.610Z,82.43
2018-03-21T09:54:31.525Z,81.76
2018-03-21T09:55:31.521Z,81.67
2018-03-21T09:57:24.448Z,80.63
2018-03-21T09:58:24.443Z,80.82
2018-03-21T10:00:17.341Z,80.82
2018-03-21T10:01:17.355Z,80.25
2018-03-21T10:03:10.269Z,81.20
2018-03-21T10:04:10.268Z,81.29
2018-03-21T10:06:03.164Z,81.57
2018-03-21T10:07:03.179Z,81.38
2018-03-21T10:08:56.095Z,79.96
2018-03-21T10:09:56.092Z,79.87
2018-03-21T10:11:48.991Z,79.30
2018-03-21T10:12:49.009Z,79.96
2018-03-21T10:14:41.919Z,80.06
2018-03-21T10:15:41.915Z,80.06
2018-03-21T10:17:34.831Z,80.63
2018-03-21T10:18:34.827Z,80.63
2018-03-21T10:20:27.722Z,80.53
2018-03-21T10:21:27.736Z,80.53
2018-03-21T10:23:20.678Z,80.15
2018-03-21T10:24:20.645Z,79.96
2018-03-21T10:26:13.542Z,80.82
2018-03-21T10:27:13.559Z,80.53
2018-03-21T10:29:06.475Z,80.72
2018-03-21T10:30:06.467Z,80.53
2018-03-21T10:31:59.366Z,79.87
2018-03-21T10:32:59.383Z,79.58
2018-03-21T10:34:52.299Z,80.06
2018-03-21T10:35:52.292Z,80.72
2018-03-21T10:37:45.208Z,81.29
2018-03-21T10:38:45.203Z,81.57
2018-03-21T10:40:38.104Z,81.38
2018-03-21T10:41:38.117Z,80.44
2018-03-21T10:43:31.033Z,80.63
2018-03-21T10:44:31.027Z,80.44
2018-03-21T10:46:23.926Z,79.77
2018-03-21T10:47:23.938Z,80.00
2018-03-21T10:49:16.854Z,78.92
2018-03-21T10:50:16.852Z,78.45
2018-03-21T10:52:09.752Z,78.92
2018-03-21T10:53:09.762Z,79.30
2018-03-21T10:55:02.676Z,79.30
2018-03-21T10:56:02.672Z,79.96
2018-03-21T10:57:55.584Z,80.25
2018-03-21T10:58:55.582Z,79.96
2018-03-21T11:00:48.476Z,79.34
2018-03-21T11:01:48.490Z,78.96
2018-03-21T11:03:41.407Z,79.72
2018-03-21T11:04:41.400Z,79.34
2018-03-21T11:06:34.373Z,78.96
2018-03-21T11:07:34.381Z,78.58
2018-03-21T11:09:27.240Z,78.30
2018-03-21T11:10:27.239Z,78.39
2018-03-21T11:12:20.139Z,78.34
2018-03-21T11:13:20.152Z,77.96
2018-03-21T11:15:13.074Z,77.39
2018-03-21T11:16:13.064Z,77.20
2018-03-21T11:18:05.977Z,76.73
2018-03-21T11:19:13.117Z,76.15
2018-03-21T11:20:58.878Z,76.01
2018-03-21T11:21:58.899Z,76.39
2018-03-21T11:23:51.814Z,75.53
2018-03-21T11:24:51.809Z,74.96
2018-03-21T11:26:44.708Z,74.20
2018-03-21T11:27:44.724Z,74.58
2018-03-21T11:29:37.641Z,74.11
2018-03-21T11:30:37.643Z,73.44
2018-03-21T11:32:30.536Z,73.72
2018-03-21T11:33:30.558Z,73.44
2018-03-21T11:35:23.477Z,72.53
2018-03-21T11:36:23.486Z,72.40
2018-03-21T11:38:16.399Z,72.63
2018-03-21T11:39:16.397Z,72.15
2018-03-21T11:41:09.292Z,72.81
2018-03-21T11:42:09.319Z,72.53
2018-03-21T11:44:02.227Z,72.44
2018-03-21T11:45:02.285Z,72.25
2018-03-21T11:46:55.129Z,71.20
2018-03-21T11:47:55.146Z,71.39
2018-03-21T11:49:48.065Z,71.20
2018-03-21T11:50:48.065Z,71.39
2018-03-21T11:52:40.968Z,71.30
2018-03-21T11:53:40.983Z,71.48
2018-03-21T11:55:33.903Z,71.43
2018-03-21T11:56:33.900Z,71.71
2018-03-21T11:58:26.820Z,71.04
2018-03-21T11:59:26.817Z,70.57
2018-03-21T12:01:19.724Z,69.62
2018-03-21T12:02:19.748Z,69.81
2018-03-21T12:04:12.673Z,70.29
2018-03-21T12:05:12.664Z,70.29
2018-03-21T12:07:05.577Z,70.23
2018-03-21T12:08:05.602Z,69.27
2018-03-21T12:09:58.513Z,68.99
2018-03-21T12:10:58.513Z,68.42
2018-03-21T12:12:51.416Z,68.04
2018-03-21T12:13:51.432Z,67.38
2018-03-21T12:15:44.552Z,66.80
2018-03-21T12:16:44.557Z,66.61
2018-03-21T12:18:37.470Z,66.55
2018-03-21T12:19:37.473Z,66.36
2018-03-21T12:21:30.372Z,66.17
2018-03-21T12:22:30.390Z,65.99
2018-03-21T12:24:23.309Z,66.33
2018-03-21T12:25:23.309Z,66.27
2018-03-21T12:27:16.246Z,65.95
2018-03-21T12:28:16.227Z,65.80
2018-03-21T12:30:09.152Z,66.84
2018-03-21T12:31:09.150Z,66.84
2018-03-21T12:33:02.049Z,65.80
2018-03-21T12:34:02.082Z,66.02
2018-03-21T12:35:54.991Z,64.69
2018-03-21T12:36:54.987Z,63.64
2018-03-21T12:38:47.910Z,63.07
2018-03-21T12:39:47.908Z,63.73
2018-03-21T12:41:40.814Z,62.56
2018-03-21T12:42:40.842Z,62.94
2018-03-21T12:44:33.790Z,63.60
2018-03-21T12:45:33.751Z,64.56
2018-03-21T12:47:26.650Z,63.99
2018-03-21T12:48:26.672Z,64.84
2018-03-21T12:50:19.591Z,64.84
2018-03-21T12:51:19.591Z,64.53
2018-03-21T12:53:12.493Z,65.00
2018-03-21T12:54:12.518Z,66.33
2018-03-21T12:56:05.514Z,67.06
2018-03-21T12:57:05.430Z,67.91
2018-03-21T12:58:58.351Z,67.34
2018-03-21T12:59:58.351Z,67.44
2018-03-21T13:01:51.248Z,67.85
2018-03-21T13:02:51.268Z,66.80
2018-03-21T13:04:44.186Z,67.28
2018-03-21T13:05:44.186Z,66.33
2018-03-21T13:07:37.105Z,65.99
2018-03-21T13:08:37.104Z,65.89
2018-03-21T13:10:30.028Z,64.94
2018-03-21T13:11:30.029Z,64.75
2018-03-21T13:13:22.924Z,64.56
2018-03-21T13:14:22.943Z,64.75
2018-03-21T13:16:16.048Z,64.65
2018-03-21T13:17:16.035Z,64.94
2018-03-21T13:19:08.955Z,65.22
2018-03-21T13:20:08.961Z,65.22
2018-03-21T13:22:01.865Z,65.03
2018-03-21T13:23:01.876Z,65.16
2018-03-21T13:24:54.797Z,64.11
2018-03-21T13:25:54.799Z,63.60
2018-03-21T13:27:47.703Z,63.51
2018-03-21T13:28:47.723Z,64.18
2018-03-21T13:30:40.643Z,63.99
2018-03-21T13:31:40.636Z,64.05
2018-03-21T13:33:33.543Z,64.90
2018-03-21T13:34:33.562Z,65.95
2018-03-21T13:36:26.484Z,65.19
2018-03-21T13:37:26.480Z,65.19
2018-03-21T13:39:19.409Z,64.62
2018-03-21T13:40:19.402Z,65.09
2018-03-21T13:42:12.304Z,64.90
2018-03-21T13:43:12.320Z,65.44
2018-03-21T13:45:05.246Z,66.11
2018-03-21T13:46:05.242Z,66.67
2018-03-21T13:47:58.137Z,66.96
2018-03-21T13:48:58.155Z,66.87
2018-03-21T13:50:51.089Z,67.44
2018-03-21T13:51:51.153Z,68.29
2018-03-21T13:53:43.979Z,68.35
2018-03-21T13:54:43.993Z,68.54
2018-03-21T13:56:36.911Z,68.54
2018-03-21T13:57:36.903Z,69.21
2018-03-21T13:59:29.830Z,69.59
2018-03-21T14:00:29.828Z,69.21
2018-03-21T14:02:22.727Z,69.21
2018-03-21T14:03:22.757Z,70.15
2018-03-21T14:05:15.662Z,69.49
2018-03-21T14:06:15.658Z,69.30
2018-03-21T14:08:08.559Z,69.34
2018-03-21T14:09:08.576Z,68.67
2018-03-21T14:11:01.530Z,68.19
2018-03-21T14:12:01.497Z,67.63
2018-03-21T14:13:54.401Z,67.15
2018-03-21T14:14:54.417Z,66.96
2018-03-21T14:16:47.342Z,65.82
2018-03-21T14:17:47.343Z,66.58
2018-03-21T14:19:40.768Z,65.92
2018-03-21T14:20:40.772Z,65.63
2018-03-21T14:22:33.715Z,65.82
2018-03-21T14:23:33.690Z,65.92
2018-03-21T14:25:26.916Z,64.24
2018-03-21T14:26:26.900Z,62.88
2018-03-21T14:28:19.786Z,62.78
2018-03-21T14:29:19.756Z,62.97
2018-03-21T14:31:12.675Z,63.86
2018-03-21T14:32:12.671Z,62.91
2018-03-21T14:34:05.581Z,62.81
2018-03-21T14:35:05.600Z,62.59
2018-03-21T14:36:58.529Z,62.88
2018-03-21T14:37:58.565Z,63.07
2018-03-21T14:39:51.443Z,63.45
2018-03-21T14:40:51.436Z,63.64
2018-03-21T14:42:44.346Z,63.92
2018-03-21T14:43:44.357Z,64.40
2018-03-21T14:45:37.275Z,64.87
2018-03-21T14:46:37.273Z,65.54
2018-03-21T14:48:30.174Z,64.87
2018-03-21T14:49:30.253Z,66.01
2018-03-21T14:51:23.332Z,65.25
2018-03-21T14:52:23.271Z,64.87
2018-03-21T14:54:16.172Z,64.21
2018-03-21T14:55:16.189Z,64.69
2018-03-21T14:57:09.106Z,65.54
2018-03-21T14:58:09.135Z,64.87
2018-03-21T15:00:02.022Z,64.97
2018-03-21T15:01:02.062Z,65.25
2018-03-21T15:02:54.921Z,65.25
2018-03-21T15:03:54.958Z,65.16
2018-03-21T15:05:48.014Z,65.73
2018-03-21T15:06:48.016Z,65.44
2018-03-21T15:08:40.928Z,65.44
2018-03-21T15:09:40.947Z,64.69
2018-03-21T15:11:33.861Z,65.38
2018-03-21T15:12:33.858Z,64.14
2018-03-21T15:14:26.756Z,63.48
2018-03-21T15:15:26.773Z,63.20
2018-03-21T15:17:20.185Z,63.95
2018-03-21T15:18:20.181Z,62.91
2018-03-21T15:20:13.099Z,63.01
2018-03-21T15:21:13.096Z,63.29
2018-03-21T15:23:05.999Z,63.39
2018-03-21T15:24:06.014Z,64.24
2018-03-21T15:25:58.934Z,64.30
2018-03-21T15:26:58.928Z,64.87
2018-03-21T15:28:51.825Z,65.25
2018-03-21T15:29:51.843Z,64.78
2018-03-21T15:31:44.759Z,64.97
2018-03-21T15:32:44.760Z,65.76
2018-03-21T15:34:37.656Z,65.09
2018-03-21T15:35:37.670Z,65.09
2018-03-21T15:37:30.588Z,63.95
2018-03-21T15:38:30.583Z,64.43
2018-03-21T15:40:23.544Z,64.24
2018-03-21T15:41:23.499Z,64.62
2018-03-21T15:43:16.424Z,64.24
2018-03-21T15:44:16.416Z,63.76
2018-03-21T15:46:09.334Z,63.67
2018-03-21T15:47:09.332Z,63.76
2018-03-21T15:49:02.267Z,63.10
2018-03-21T15:50:02.250Z,63.48
2018-03-21T15:51:55.173Z,63.20
2018-03-21T15:52:55.199Z,63.57
2018-03-21T15:54:48.074Z,63.48
2018-03-21T15:55:48.087Z,64.53
2018-03-21T15:57:41.058Z,64.43
2018-03-21T15:58:41.013Z,64.30
2018-03-21T16:00:33.941Z,64.72
2018-03-21T16:01:33.923Z,65.09
2018-03-21T16:03:26.848Z,64.40
2018-03-21T16:04:26.840Z,64.40
2018-03-21T16:06:19.783Z,65.16
2018-03-21T16:07:19.780Z,65.44
2018-03-21T16:09:12.699Z,65.92
2018-03-21T16:10:12.704Z,65.92
2018-03-21T16:12:05.614Z,65.92
2018-03-21T16:13:05.614Z,65.82
2018-03-21T16:14:58.514Z,66.01
2018-03-21T16:15:58.527Z,65.73
2018-03-21T16:17:52.156Z,65.63
2018-03-21T16:18:52.154Z,65.76
2018-03-21T16:20:45.081Z,66.42
2018-03-21T16:21:45.066Z,66.14
2018-03-21T16:23:37.968Z,66.05
2018-03-21T16:24:37.983Z,64.72
2018-03-21T16:26:30.907Z,65.09
2018-03-21T16:27:30.912Z,64.87
2018-03-21T16:29:23.804Z,65.63
2018-03-21T16:30:23.822Z,65.63
2018-03-21T16:32:16.743Z,65.73
2018-03-21T16:33:16.743Z,66.20
2018-03-21T16:35:09.641Z,65.63
2018-03-21T16:36:09.656Z,65.92
2018-03-21T16:38:02.581Z,65.92
2018-03-21T16:39:02.581Z,65.63
2018-03-21T16:40:55.512Z,65.82
2018-03-21T16:41:55.494Z,65.73
2018-03-21T16:43:48.401Z,66.20
2018-03-21T16:44:48.414Z,65.44
2018-03-21T16:46:41.335Z,65.54
2018-03-21T16:47:41.331Z,65.73
2018-03-21T16:49:34.233Z,66.11
2018-03-21T16:50:34.247Z,65.92
2018-03-21T16:52:27.168Z,65.92
2018-03-21T16:53:27.166Z,66.58
2018-03-21T16:55:20.066Z,66.96
2018-03-21T16:56:20.083Z,66.49
2018-03-21T16:58:13.994Z,66.77
2018-03-21T16:59:13.995Z,66.39
2018-03-21T17:01:06.908Z,66.96
2018-03-21T17:02:06.905Z,66.96
2018-03-21T17:03:59.829Z,67.15
2018-03-21T17:04:59.826Z,67.25
2018-03-21T17:06:52.740Z,67.15
2018-03-21T17:07:52.739Z,66.87
2018-03-21T17:09:45.637Z,66.93
2018-03-21T17:10:45.650Z,66.77
2018-03-21T17:12:38.579Z,66.96
2018-03-21T17:13:38.575Z,66.83
2018-03-21T17:15:31.510Z,67.79
2018-03-21T17:16:31.520Z,67.34
2018-03-21T17:18:24.438Z,67.79
2018-03-21T17:19:24.437Z,67.59
2018-03-21T17:21:17.363Z,67.79
2018-03-21T17:22:17.349Z,68.35
2018-03-21T17:24:10.243Z,68.44
2018-03-21T17:25:10.268Z,68.44
2018-03-21T17:27:03.175Z,68.54
2018-03-21T17:28:03.183Z,68.44
2018-03-21T17:29:56.563Z,68.44
2018-03-21T17:30:56.580Z,68.16
2018-03-21T17:32:49.508Z,68.35
2018-03-21T17:33:49.498Z,68.26
2018-03-21T17:35:42.399Z,68.35
2018-03-21T17:36:42.416Z,67.88
2018-03-21T17:38:35.331Z,68.07
2018-03-21T17:39:35.333Z,68.16
2018-03-21T17:41:28.462Z,68.35
2018-03-21T17:42:28.440Z,68.73
2018-03-21T17:44:21.337Z,68.44
2018-03-21T17:45:21.354Z,68.35
2018-03-21T17:47:14.266Z,68.73
2018-03-21T17:48:14.264Z,68.73
2018-03-21T17:50:07.262Z,69.11
2018-03-21T17:51:07.284Z,68.26
2018-03-21T17:53:00.196Z,68.83
2018-03-21T17:54:00.196Z,68.26
2018-03-21T17:55:53.089Z,68.35
2018-03-21T17:56:53.103Z,67.97
2018-03-21T17:58:46.046Z,68.26
2018-03-21T17:59:46.016Z,68.26
2018-03-21T18:01:38.924Z,67.88
2018-03-21T18:02:38.928Z,67.79
2018-03-21T18:04:31.851Z,68.44
2018-03-21T18:05:31.848Z,68.64
2018-03-21T18:07:24.761Z,68.79
2018-03-21T18:08:24.758Z,68.64
2018-03-21T18:10:17.652Z,68.35
2018-03-21T18:11:17.669Z,68.26
2018-03-21T18:13:10.582Z,68.54
2018-03-21T18:14:10.581Z,68.60
2018-03-21T18:16:03.480Z,68.83
2018-03-21T18:17:03.495Z,68.83
2018-03-21T18:18:56.411Z,68.54
2018-03-21T18:19:56.409Z,67.97
2018-03-21T18:21:49.311Z,67.31
2018-03-21T18:22:49.325Z,67.59
2018-03-21T18:24:42.239Z,67.59
2018-03-21T18:25:42.235Z,67.50
2018-03-21T18:27:35.149Z,67.75
2018-03-21T18:28:35.145Z,68.60
2018-03-21T18:30:28.045Z,68.44
2018-03-21T18:31:28.059Z,68.41
2018-03-21T18:33:20.973Z,68.89